sensor_id;sensor_type;location;lat;lon;timestamp;P1;durP1;ratioP1;P2;durP2;ratioP2
67861;SDS011;54665;51.462;6.698;2023-02-27T00:01:38;9.17;;;3.57;;
67861;SDS011;54665;51.462;6.698;2023-02-27T00:04:04;12.53;;;3.80;;
67861;SDS011;54665;51.462;6.698;2023-02-27T00:06:29;9.93;;;3.53;;
67861;SDS011;54665;51.462;6.698;2023-02-27T00:08:55;12.53;;;3.40;;
67861;SDS011;54665;51.462;6.698;2023-02-27T00:11:20;14.73;;;3.43;;
67861;SDS011;54665;51.462;6.698;2023-02-27T00:13:46;15.65;;;4.38;;
67861;SDS011;54665;51.462;6.698;2023-02-27T00:16:11;10.93;;;3.23;;
67861;SDS011;54665;51.462;6.698;2023-02-27T00:18:38;17.90;;;4.65;;
67861;SDS011;54665;51.462;6.698;2023-02-27T00:21:03;13.70;;;3.20;;
67861;SDS011;54665;51.462;6.698;2023-02-27T00:23:29;11.50;;;3.30;;
67861;SDS011;54665;51.462;6.698;2023-02-27T00:25:54;14.38;;;3.83;;
67861;SDS011;54665;51.462;6.698;2023-02-27T00:28:20;11.10;;;3.73;;
67861;SDS011;54665;51.462;6.698;2023-02-27T00:30:46;10.82;;;3.88;;
67861;SDS011;54665;51.462;6.698;2023-02-27T00:33:12;9.63;;;2.40;;
67861;SDS011;54665;51.462;6.698;2023-02-27T00:35:39;14.43;;;3.28;;
67861;SDS011;54665;51.462;6.698;2023-02-27T00:38:04;11.57;;;3.00;;
67861;SDS011;54665;51.462;6.698;2023-02-27T00:40:30;11.13;;;3.00;;
67861;SDS011;54665;51.462;6.698;2023-02-27T00:42:56;13.73;;;2.55;;
67861;SDS011;54665;51.462;6.698;2023-02-27T00:45:21;13.03;;;3.37;;
67861;SDS011;54665;51.462;6.698;2023-02-27T00:47:47;17.20;;;2.93;;
67861;SDS011;54665;51.462;6.698;2023-02-27T00:50:13;10.95;;;2.45;;
67861;SDS011;54665;51.462;6.698;2023-02-27T00:52:39;6.50;;;1.67;;
67861;SDS011;54665;51.462;6.698;2023-02-27T00:55:06;4.47;;;1.20;;
67861;SDS011;54665;51.462;6.698;2023-02-27T00:57:32;7.07;;;1.70;;
67861;SDS011;54665;51.462;6.698;2023-02-27T00:59:58;5.93;;;1.53;;
67861;SDS011;54665;51.462;6.698;2023-02-27T01:02:23;3.90;;;1.20;;
67861;SDS011;54665;51.462;6.698;2023-02-27T01:04:48;5.07;;;1.40;;
67861;SDS011;54665;51.462;6.698;2023-02-27T01:07:14;7.30;;;1.60;;
67861;SDS011;54665;51.462;6.698;2023-02-27T01:09:39;5.40;;;1.67;;
67861;SDS011;54665;51.462;6.698;2023-02-27T01:12:05;6.57;;;2.00;;
67861;SDS011;54665;51.462;6.698;2023-02-27T01:14:31;3.83;;;1.45;;
67861;SDS011;54665;51.462;6.698;2023-02-27T01:16:56;4.90;;;1.57;;
67861;SDS011;54665;51.462;6.698;2023-02-27T01:19:22;5.33;;;1.23;;
67861;SDS011;54665;51.462;6.698;2023-02-27T01:21:48;2.90;;;1.15;;
67861;SDS011;54665;51.462;6.698;2023-02-27T01:24:13;3.93;;;1.10;;
67861;SDS011;54665;51.462;6.698;2023-02-27T01:26:39;6.77;;;1.60;;
67861;SDS011;54665;51.462;6.698;2023-02-27T01:29:04;3.78;;;1.48;;
67861;SDS011;54665;51.462;6.698;2023-02-27T01:31:30;7.47;;;1.97;;
67861;SDS011;54665;51.462;6.698;2023-02-27T01:33:55;6.17;;;1.87;;
67861;SDS011;54665;51.462;6.698;2023-02-27T01:36:21;5.87;;;2.20;;
67861;SDS011;54665;51.462;6.698;2023-02-27T01:38:46;6.20;;;2.00;;
67861;SDS011;54665;51.462;6.698;2023-02-27T01:41:12;5.17;;;1.40;;
67861;SDS011;54665;51.462;6.698;2023-02-27T01:43:54;4.67;;;1.40;;
67861;SDS011;54665;51.462;6.698;2023-02-27T01:46:24;5.43;;;1.50;;
67861;SDS011;54665;51.462;6.698;2023-02-27T01:48:50;6.72;;;1.58;;
67861;SDS011;54665;51.462;6.698;2023-02-27T01:51:19;4.20;;;1.50;;
67861;SDS011;54665;51.462;6.698;2023-02-27T01:53:47;4.93;;;1.15;;
67861;SDS011;54665;51.462;6.698;2023-02-27T01:56:15;4.95;;;1.33;;
67861;SDS011;54665;51.462;6.698;2023-02-27T01:58:46;3.10;;;0.93;;
67861;SDS011;54665;51.462;6.698;2023-02-27T02:01:14;7.10;;;1.58;;
67861;SDS011;54665;51.462;6.698;2023-02-27T02:03:51;6.40;;;1.77;;
67861;SDS011;54665;51.462;6.698;2023-02-27T02:06:24;4.43;;;1.60;;
67861;SDS011;54665;51.462;6.698;2023-02-27T02:08:52;6.35;;;1.50;;
67861;SDS011;54665;51.462;6.698;2023-02-27T02:11:20;6.75;;;1.90;;
67861;SDS011;54665;51.462;6.698;2023-02-27T02:13:48;5.03;;;1.38;;
67861;SDS011;54665;51.462;6.698;2023-02-27T02:33:30;6.22;;;1.70;;
67861;SDS011;54665;51.462;6.698;2023-02-27T02:50:11;6.20;;;1.60;;
67861;SDS011;54665;51.462;6.698;2023-02-27T02:52:53;8.52;;;1.70;;
67861;SDS011;54665;51.462;6.698;2023-02-27T02:55:37;5.43;;;1.60;;
67861;SDS011;54665;51.462;6.698;2023-02-27T02:58:10;6.20;;;1.60;;
67861;SDS011;54665;51.462;6.698;2023-02-27T03:00:51;9.60;;;1.80;;
67861;SDS011;54665;51.462;6.698;2023-02-27T03:03:30;6.35;;;1.55;;
67861;SDS011;54665;51.462;6.698;2023-02-27T03:06:10;8.35;;;1.70;;
67861;SDS011;54665;51.462;6.698;2023-02-27T03:08:46;6.32;;;1.98;;
67861;SDS011;54665;51.462;6.698;2023-02-27T03:11:16;4.20;;;1.77;;
67861;SDS011;54665;51.462;6.698;2023-02-27T03:13:55;5.43;;;1.43;;
67861;SDS011;54665;51.462;6.698;2023-02-27T03:18:57;5.33;;;1.80;;
67861;SDS011;54665;51.462;6.698;2023-02-27T03:21:34;4.30;;;1.63;;
67861;SDS011;54665;51.462;6.698;2023-02-27T03:24:09;7.15;;;1.60;;
67861;SDS011;54665;51.462;6.698;2023-02-27T03:26:40;4.55;;;1.60;;
67861;SDS011;54665;51.462;6.698;2023-02-27T03:29:10;4.90;;;1.73;;
67861;SDS011;54665;51.462;6.698;2023-02-27T03:31:45;5.30;;;1.73;;
67861;SDS011;54665;51.462;6.698;2023-02-27T03:34:21;5.57;;;2.00;;
67861;SDS011;54665;51.462;6.698;2023-02-27T03:40:08;4.03;;;1.58;;
67861;SDS011;54665;51.462;6.698;2023-02-27T03:42:47;9.47;;;1.83;;
67861;SDS011;54665;51.462;6.698;2023-02-27T03:45:27;5.18;;;2.00;;
67861;SDS011;54665;51.462;6.698;2023-02-27T03:48:01;5.13;;;1.77;;
67861;SDS011;54665;51.462;6.698;2023-02-27T03:50:28;5.13;;;1.90;;
67861;SDS011;54665;51.462;6.698;2023-02-27T03:52:54;5.87;;;2.00;;
67861;SDS011;54665;51.462;6.698;2023-02-27T03:55:21;8.27;;;2.00;;
67861;SDS011;54665;51.462;6.698;2023-02-27T03:57:51;6.70;;;1.90;;
67861;SDS011;54665;51.462;6.698;2023-02-27T04:00:21;7.80;;;1.88;;
67861;SDS011;54665;51.462;6.698;2023-02-27T04:02:49;2.95;;;1.25;;
67861;SDS011;54665;51.462;6.698;2023-02-27T04:05:19;5.47;;;1.55;;
67861;SDS011;54665;51.462;6.698;2023-02-27T04:08:07;8.77;;;2.13;;
67861;SDS011;54665;51.462;6.698;2023-02-27T04:21:53;5.72;;;2.00;;
67861;SDS011;54665;51.462;6.698;2023-02-27T04:24:32;7.30;;;2.17;;
67861;SDS011;54665;51.462;6.698;2023-02-27T04:30:14;5.95;;;2.25;;
67861;SDS011;54665;51.462;6.698;2023-02-27T04:35:58;5.93;;;2.10;;
67861;SDS011;54665;51.462;6.698;2023-02-27T04:38:38;7.30;;;2.20;;
67861;SDS011;54665;51.462;6.698;2023-02-27T04:41:18;6.72;;;2.08;;
67861;SDS011;54665;51.462;6.698;2023-02-27T04:43:47;6.30;;;2.00;;
67861;SDS011;54665;51.462;6.698;2023-02-27T04:46:22;6.13;;;2.15;;
67861;SDS011;54665;51.462;6.698;2023-02-27T04:48:51;4.80;;;1.90;;
67861;SDS011;54665;51.462;6.698;2023-02-27T04:51:23;7.05;;;2.40;;
67861;SDS011;54665;51.462;6.698;2023-02-27T04:56:22;6.65;;;2.17;;
67861;SDS011;54665;51.462;6.698;2023-02-27T04:58:57;8.73;;;2.30;;
67861;SDS011;54665;51.462;6.698;2023-02-27T05:04:27;6.97;;;2.35;;
67861;SDS011;54665;51.462;6.698;2023-02-27T05:06:56;6.38;;;2.47;;
67861;SDS011;54665;51.462;6.698;2023-02-27T05:09:30;6.93;;;2.65;;
67861;SDS011;54665;51.462;6.698;2023-02-27T05:17:30;8.68;;;3.00;;
67861;SDS011;54665;51.462;6.698;2023-02-27T05:19:58;10.57;;;2.78;;
67861;SDS011;54665;51.462;6.698;2023-02-27T05:25:15;7.80;;;2.85;;
67861;SDS011;54665;51.462;6.698;2023-02-27T05:27:52;6.53;;;2.83;;
67861;SDS011;54665;51.462;6.698;2023-02-27T05:30:37;8.88;;;3.17;;
67861;SDS011;54665;51.462;6.698;2023-02-27T05:36:00;9.07;;;3.03;;
67861;SDS011;54665;51.462;6.698;2023-02-27T05:38:42;8.88;;;3.22;;
67861;SDS011;54665;51.462;6.698;2023-02-27T05:41:16;9.38;;;3.13;;
67861;SDS011;54665;51.462;6.698;2023-02-27T05:43:46;7.38;;;3.38;;
67861;SDS011;54665;51.462;6.698;2023-02-27T05:46:16;9.63;;;3.83;;
67861;SDS011;54665;51.462;6.698;2023-02-27T05:48:51;11.20;;;4.28;;
67861;SDS011;54665;51.462;6.698;2023-02-27T05:51:19;10.40;;;3.83;;
67861;SDS011;54665;51.462;6.698;2023-02-27T05:53:47;13.30;;;4.57;;
67861;SDS011;54665;51.462;6.698;2023-02-27T05:56:21;12.02;;;4.22;;
67861;SDS011;54665;51.462;6.698;2023-02-27T05:58:55;13.00;;;4.90;;
67861;SDS011;54665;51.462;6.698;2023-02-27T06:01:32;12.43;;;5.05;;
67861;SDS011;54665;51.462;6.698;2023-02-27T06:03:58;10.02;;;4.20;;
67861;SDS011;54665;51.462;6.698;2023-02-27T06:06:23;13.47;;;4.90;;
67861;SDS011;54665;51.462;6.698;2023-02-27T06:08:49;13.32;;;4.78;;
67861;SDS011;54665;51.462;6.698;2023-02-27T06:11:15;15.07;;;5.60;;
67861;SDS011;54665;51.462;6.698;2023-02-27T06:13:41;14.93;;;6.03;;
67861;SDS011;54665;51.462;6.698;2023-02-27T06:16:08;16.57;;;5.50;;
67861;SDS011;54665;51.462;6.698;2023-02-27T06:18:41;15.48;;;5.05;;
67861;SDS011;54665;51.462;6.698;2023-02-27T06:21:06;23.63;;;8.83;;
67861;SDS011;54665;51.462;6.698;2023-02-27T06:23:31;20.27;;;7.73;;
67861;SDS011;54665;51.462;6.698;2023-02-27T06:25:57;37.47;;;12.82;;
67861;SDS011;54665;51.462;6.698;2023-02-27T06:28:22;30.30;;;11.10;;
67861;SDS011;54665;51.462;6.698;2023-02-27T06:30:51;26.70;;;8.63;;
67861;SDS011;54665;51.462;6.698;2023-02-27T06:33:18;21.05;;;7.70;;
67861;SDS011;54665;51.462;6.698;2023-02-27T06:35:46;14.87;;;5.73;;
67861;SDS011;54665;51.462;6.698;2023-02-27T06:38:12;16.85;;;5.35;;
67861;SDS011;54665;51.462;6.698;2023-02-27T06:40:37;12.90;;;5.07;;
67861;SDS011;54665;51.462;6.698;2023-02-27T06:43:03;13.83;;;5.47;;
67861;SDS011;54665;51.462;6.698;2023-02-27T06:45:29;18.02;;;6.82;;
67861;SDS011;54665;51.462;6.698;2023-02-27T06:47:54;15.50;;;6.00;;
67861;SDS011;54665;51.462;6.698;2023-02-27T06:50:20;17.67;;;6.37;;
67861;SDS011;54665;51.462;6.698;2023-02-27T06:52:45;13.00;;;5.40;;
67861;SDS011;54665;51.462;6.698;2023-02-27T06:55:11;14.80;;;5.50;;
67861;SDS011;54665;51.462;6.698;2023-02-27T06:57:36;15.53;;;6.03;;
67861;SDS011;54665;51.462;6.698;2023-02-27T07:00:02;12.73;;;5.30;;
67861;SDS011;54665;51.462;6.698;2023-02-27T07:02:28;13.43;;;4.68;;
67861;SDS011;54665;51.462;6.698;2023-02-27T07:04:54;13.70;;;3.83;;
67861;SDS011;54665;51.462;6.698;2023-02-27T07:07:19;17.50;;;4.23;;
67861;SDS011;54665;51.462;6.698;2023-02-27T07:09:45;11.15;;;4.28;;
67861;SDS011;54665;51.462;6.698;2023-02-27T07:12:10;17.73;;;5.25;;
67861;SDS011;54665;51.462;6.698;2023-02-27T07:14:36;18.37;;;7.10;;
67861;SDS011;54665;51.462;6.698;2023-02-27T07:17:01;20.80;;;7.50;;
67861;SDS011;54665;51.462;6.698;2023-02-27T07:19:30;17.48;;;6.78;;
67861;SDS011;54665;51.462;6.698;2023-02-27T07:21:57;12.93;;;5.00;;
67861;SDS011;54665;51.462;6.698;2023-02-27T07:24:23;11.32;;;4.13;;
67861;SDS011;54665;51.462;6.698;2023-02-27T07:26:49;10.93;;;4.30;;
67861;SDS011;54665;51.462;6.698;2023-02-27T07:29:14;15.40;;;4.43;;
67861;SDS011;54665;51.462;6.698;2023-02-27T07:31:40;7.83;;;3.20;;
67861;SDS011;54665;51.462;6.698;2023-02-27T07:34:05;10.23;;;3.70;;
67861;SDS011;54665;51.462;6.698;2023-02-27T07:36:31;9.00;;;3.83;;
67861;SDS011;54665;51.462;6.698;2023-02-27T07:38:57;10.80;;;4.40;;
67861;SDS011;54665;51.462;6.698;2023-02-27T07:41:23;22.20;;;7.57;;
67861;SDS011;54665;51.462;6.698;2023-02-27T07:43:49;10.75;;;4.47;;
67861;SDS011;54665;51.462;6.698;2023-02-27T07:46:14;62.83;;;19.63;;
67861;SDS011;54665;51.462;6.698;2023-02-27T07:48:40;12.85;;;4.78;;
67861;SDS011;54665;51.462;6.698;2023-02-27T07:51:06;16.10;;;6.17;;
67861;SDS011;54665;51.462;6.698;2023-02-27T07:53:31;14.37;;;4.43;;
67861;SDS011;54665;51.462;6.698;2023-02-27T07:55:56;12.93;;;5.10;;
67861;SDS011;54665;51.462;6.698;2023-02-27T07:58:22;14.13;;;5.20;;
67861;SDS011;54665;51.462;6.698;2023-02-27T08:00:48;11.43;;;4.32;;
67861;SDS011;54665;51.462;6.698;2023-02-27T08:03:13;10.63;;;4.20;;
67861;SDS011;54665;51.462;6.698;2023-02-27T08:05:38;18.63;;;6.63;;
67861;SDS011;54665;51.462;6.698;2023-02-27T08:08:04;44.77;;;14.37;;
67861;SDS011;54665;51.462;6.698;2023-02-27T08:10:29;19.35;;;7.60;;
67861;SDS011;54665;51.462;6.698;2023-02-27T08:12:55;11.73;;;4.30;;
67861;SDS011;54665;51.462;6.698;2023-02-27T08:15:20;31.57;;;12.00;;
67861;SDS011;54665;51.462;6.698;2023-02-27T08:17:46;13.87;;;4.60;;
67861;SDS011;54665;51.462;6.698;2023-02-27T08:20:12;8.05;;;3.25;;
67861;SDS011;54665;51.462;6.698;2023-02-27T08:22:39;8.80;;;3.17;;
67861;SDS011;54665;51.462;6.698;2023-02-27T08:25:06;7.68;;;3.22;;
67861;SDS011;54665;51.462;6.698;2023-02-27T08:27:35;22.30;;;8.00;;
67861;SDS011;54665;51.462;6.698;2023-02-27T08:30:01;31.77;;;11.00;;
67861;SDS011;54665;51.462;6.698;2023-02-27T08:32:27;8.57;;;3.40;;
67861;SDS011;54665;51.462;6.698;2023-02-27T08:34:52;11.73;;;4.10;;
67861;SDS011;54665;51.462;6.698;2023-02-27T08:37:18;8.20;;;2.88;;
67861;SDS011;54665;51.462;6.698;2023-02-27T08:39:44;12.60;;;4.80;;
67861;SDS011;54665;51.462;6.698;2023-02-27T08:42:09;11.20;;;3.10;;
67861;SDS011;54665;51.462;6.698;2023-02-27T08:44:34;8.43;;;2.90;;
67861;SDS011;54665;51.462;6.698;2023-02-27T08:47:00;7.17;;;2.60;;
67861;SDS011;54665;51.462;6.698;2023-02-27T08:49:26;7.18;;;3.05;;
67861;SDS011;54665;51.462;6.698;2023-02-27T08:51:52;10.63;;;3.27;;
67861;SDS011;54665;51.462;6.698;2023-02-27T08:54:18;4.72;;;2.08;;
67861;SDS011;54665;51.462;6.698;2023-02-27T08:56:44;7.57;;;2.10;;
67861;SDS011;54665;51.462;6.698;2023-02-27T08:59:09;10.95;;;2.80;;
67861;SDS011;54665;51.462;6.698;2023-02-27T09:01:35;5.37;;;2.17;;
67861;SDS011;54665;51.462;6.698;2023-02-27T09:04:01;5.23;;;2.20;;
67861;SDS011;54665;51.462;6.698;2023-02-27T09:06:28;8.67;;;2.77;;
67861;SDS011;54665;51.462;6.698;2023-02-27T09:08:54;8.57;;;2.22;;
67861;SDS011;54665;51.462;6.698;2023-02-27T09:11:21;5.22;;;2.15;;
67861;SDS011;54665;51.462;6.698;2023-02-27T09:13:46;5.93;;;2.10;;
67861;SDS011;54665;51.462;6.698;2023-02-27T09:16:12;5.23;;;2.30;;
67861;SDS011;54665;51.462;6.698;2023-02-27T09:18:37;6.47;;;2.00;;
67861;SDS011;54665;51.462;6.698;2023-02-27T09:21:03;7.17;;;2.50;;
67861;SDS011;54665;51.462;6.698;2023-02-27T09:23:28;10.07;;;4.15;;
67861;SDS011;54665;51.462;6.698;2023-02-27T09:25:53;6.80;;;1.90;;
67861;SDS011;54665;51.462;6.698;2023-02-27T09:28:19;7.13;;;2.30;;
67861;SDS011;54665;51.462;6.698;2023-02-27T09:30:45;7.50;;;2.88;;
67861;SDS011;54665;51.462;6.698;2023-02-27T09:33:11;5.97;;;1.97;;
67861;SDS011;54665;51.462;6.698;2023-02-27T09:35:37;7.65;;;2.33;;
67861;SDS011;54665;51.462;6.698;2023-02-27T09:38:02;6.20;;;2.10;;
67861;SDS011;54665;51.462;6.698;2023-02-27T09:40:29;4.60;;;1.70;;
67861;SDS011;54665;51.462;6.698;2023-02-27T09:42:57;4.35;;;1.50;;
67861;SDS011;54665;51.462;6.698;2023-02-27T09:45:27;3.65;;;1.05;;
67861;SDS011;54665;51.462;6.698;2023-02-27T09:47:55;5.82;;;1.70;;
67861;SDS011;54665;51.462;6.698;2023-02-27T09:52:56;5.27;;;1.77;;
67861;SDS011;54665;51.462;6.698;2023-02-27T09:55:21;3.72;;;1.15;;
67861;SDS011;54665;51.462;6.698;2023-02-27T09:57:51;3.25;;;1.27;;
67861;SDS011;54665;51.462;6.698;2023-02-27T10:08:34;3.30;;;0.80;;
67861;SDS011;54665;51.462;6.698;2023-02-27T10:11:10;6.40;;;1.00;;
67861;SDS011;54665;51.462;6.698;2023-02-27T10:13:46;4.97;;;0.93;;
67861;SDS011;54665;51.462;6.698;2023-02-27T10:16:20;3.08;;;0.93;;
67861;SDS011;54665;51.462;6.698;2023-02-27T10:18:56;4.47;;;1.00;;
67861;SDS011;54665;51.462;6.698;2023-02-27T10:21:32;2.75;;;1.00;;
67861;SDS011;54665;51.462;6.698;2023-02-27T10:24:03;5.55;;;1.60;;
67861;SDS011;54665;51.462;6.698;2023-02-27T10:26:46;5.13;;;1.30;;
67861;SDS011;54665;51.462;6.698;2023-02-27T10:29:15;3.90;;;1.30;;
67861;SDS011;54665;51.462;6.698;2023-02-27T10:31:47;3.22;;;0.98;;
67861;SDS011;54665;51.462;6.698;2023-02-27T10:34:20;11.18;;;5.25;;
67861;SDS011;54665;51.462;6.698;2023-02-27T10:36:47;4.70;;;1.30;;
67861;SDS011;54665;51.462;6.698;2023-02-27T10:39:14;5.67;;;1.50;;
67861;SDS011;54665;51.462;6.698;2023-02-27T10:41:43;14.50;;;4.97;;
67861;SDS011;54665;51.462;6.698;2023-02-27T10:44:12;14.85;;;4.82;;
67861;SDS011;54665;51.462;6.698;2023-02-27T10:46:39;7.53;;;2.47;;
67861;SDS011;54665;51.462;6.698;2023-02-27T10:49:13;3.55;;;1.13;;
67861;SDS011;54665;51.462;6.698;2023-02-27T10:51:44;7.97;;;2.97;;
67861;SDS011;54665;51.462;6.698;2023-02-27T10:54:27;4.40;;;1.37;;
67861;SDS011;54665;51.462;6.698;2023-02-27T10:56:53;2.90;;;1.10;;
67861;SDS011;54665;51.462;6.698;2023-02-27T10:59:28;4.57;;;1.47;;
67861;SDS011;54665;51.462;6.698;2023-02-27T11:02:00;2.97;;;1.15;;
67861;SDS011;54665;51.462;6.698;2023-02-27T11:04:38;4.05;;;1.15;;
67861;SDS011;54665;51.462;6.698;2023-02-27T11:07:10;4.53;;;1.33;;
67861;SDS011;54665;51.462;6.698;2023-02-27T11:09:39;3.08;;;1.20;;
67861;SDS011;54665;51.462;6.698;2023-02-27T11:12:55;3.03;;;1.27;;
67861;SDS011;54665;51.462;6.698;2023-02-27T11:14:56;3.22;;;1.50;;
67861;SDS011;54665;51.462;6.698;2023-02-27T11:17:26;3.17;;;1.17;;
67861;SDS011;54665;51.462;6.698;2023-02-27T11:19:55;4.43;;;1.27;;
67861;SDS011;54665;51.462;6.698;2023-02-27T11:22:22;5.27;;;2.23;;
67861;SDS011;54665;51.462;6.698;2023-02-27T11:24:51;5.40;;;1.95;;
67861;SDS011;54665;51.462;6.698;2023-02-27T11:27:33;5.57;;;1.50;;
67861;SDS011;54665;51.462;6.698;2023-02-27T11:30:05;3.63;;;1.50;;
67861;SDS011;54665;51.462;6.698;2023-02-27T11:32:46;4.55;;;1.75;;
67861;SDS011;54665;51.462;6.698;2023-02-27T11:35:25;7.95;;;1.90;;
67861;SDS011;54665;51.462;6.698;2023-02-27T11:37:54;4.70;;;1.70;;
67861;SDS011;54665;51.462;6.698;2023-02-27T11:40:25;10.48;;;4.05;;
67861;SDS011;54665;51.462;6.698;2023-02-27T11:42:55;4.95;;;1.88;;
67861;SDS011;54665;51.462;6.698;2023-02-27T11:45:26;4.15;;;1.67;;
67861;SDS011;54665;51.462;6.698;2023-02-27T11:47:59;4.65;;;1.73;;
67861;SDS011;54665;51.462;6.698;2023-02-27T11:53:19;4.90;;;1.70;;
67861;SDS011;54665;51.462;6.698;2023-02-27T11:55:59;3.00;;;1.08;;
67861;SDS011;54665;51.462;6.698;2023-02-27T11:58:27;4.53;;;1.60;;
67861;SDS011;54665;51.462;6.698;2023-02-27T12:01:00;4.68;;;1.75;;
67861;SDS011;54665;51.462;6.698;2023-02-27T12:03:44;6.30;;;2.00;;
67861;SDS011;54665;51.462;6.698;2023-02-27T12:06:19;6.95;;;2.15;;
67861;SDS011;54665;51.462;6.698;2023-02-27T12:08:53;4.88;;;2.03;;
67861;SDS011;54665;51.462;6.698;2023-02-27T12:11:23;6.63;;;3.17;;
67861;SDS011;54665;51.462;6.698;2023-02-27T12:14:38;5.07;;;1.73;;
67861;SDS011;54665;51.462;6.698;2023-02-27T12:16:58;3.77;;;1.70;;
67861;SDS011;54665;51.462;6.698;2023-02-27T12:19:29;5.05;;;2.10;;
67861;SDS011;54665;51.462;6.698;2023-02-27T12:22:05;4.78;;;1.60;;
67861;SDS011;54665;51.462;6.698;2023-02-27T12:24:56;4.00;;;1.40;;
67861;SDS011;54665;51.462;6.698;2023-02-27T12:27:35;4.07;;;1.50;;
67861;SDS011;54665;51.462;6.698;2023-02-27T12:30:12;3.70;;;1.67;;
67861;SDS011;54665;51.462;6.698;2023-02-27T12:32:46;3.70;;;1.45;;
67861;SDS011;54665;51.462;6.698;2023-02-27T12:35:32;5.35;;;1.58;;
67861;SDS011;54665;51.462;6.698;2023-02-27T12:37:58;3.07;;;1.40;;
67861;SDS011;54665;51.462;6.698;2023-02-27T12:40:28;6.00;;;1.83;;
67861;SDS011;54665;51.462;6.698;2023-02-27T12:42:58;14.90;;;6.50;;
67861;SDS011;54665;51.462;6.698;2023-02-27T12:48:44;4.67;;;2.10;;
67861;SDS011;54665;51.462;6.698;2023-02-27T12:51:28;4.15;;;2.00;;
67861;SDS011;54665;51.462;6.698;2023-02-27T12:54:07;23.80;;;9.50;;
67861;SDS011;54665;51.462;6.698;2023-02-27T12:56:49;15.80;;;5.43;;
67861;SDS011;54665;51.462;6.698;2023-02-27T12:59:51;4.28;;;1.63;;
67861;SDS011;54665;51.462;6.698;2023-02-27T13:05:25;4.95;;;2.10;;
67861;SDS011;54665;51.462;6.698;2023-02-27T13:12:58;9.40;;;3.67;;
67861;SDS011;54665;51.462;6.698;2023-02-27T13:15:33;4.35;;;1.92;;
67861;SDS011;54665;51.462;6.698;2023-02-27T13:20:51;4.07;;;1.57;;
67861;SDS011;54665;51.462;6.698;2023-02-27T13:23:39;2.70;;;1.60;;
67861;SDS011;54665;51.462;6.698;2023-02-27T13:26:16;7.30;;;2.47;;
67861;SDS011;54665;51.462;6.698;2023-02-27T13:28:46;11.82;;;4.30;;
67861;SDS011;54665;51.462;6.698;2023-02-27T13:31:16;11.02;;;3.90;;
67861;SDS011;54665;51.462;6.698;2023-02-27T13:36:37;5.68;;;2.45;;
67861;SDS011;54665;51.462;6.698;2023-02-27T13:39:35;17.98;;;5.50;;
67861;SDS011;54665;51.462;6.698;2023-02-27T13:42:48;6.95;;;2.60;;
67861;SDS011;54665;51.462;6.698;2023-02-27T13:45:02;11.77;;;4.60;;
67861;SDS011;54665;51.462;6.698;2023-02-27T13:49:58;6.10;;;2.30;;
67861;SDS011;54665;51.462;6.698;2023-02-27T13:52:29;3.80;;;1.90;;
67861;SDS011;54665;51.462;6.698;2023-02-27T13:54:56;5.80;;;2.40;;
67861;SDS011;54665;51.462;6.698;2023-02-27T13:57:22;8.70;;;2.87;;
67861;SDS011;54665;51.462;6.698;2023-02-27T13:59:51;6.47;;;2.55;;
67861;SDS011;54665;51.462;6.698;2023-02-27T14:02:27;3.88;;;1.88;;
67861;SDS011;54665;51.462;6.698;2023-02-27T14:04:55;5.00;;;2.20;;
67861;SDS011;54665;51.462;6.698;2023-02-27T14:07:28;5.47;;;2.13;;
67861;SDS011;54665;51.462;6.698;2023-02-27T14:10:04;8.03;;;2.27;;
67861;SDS011;54665;51.462;6.698;2023-02-27T14:12:35;8.32;;;2.22;;
67861;SDS011;54665;51.462;6.698;2023-02-27T14:15:06;6.50;;;2.65;;
67861;SDS011;54665;51.462;6.698;2023-02-27T14:18:00;13.93;;;5.72;;
67861;SDS011;54665;51.462;6.698;2023-02-27T14:25:54;15.02;;;6.15;;
67861;SDS011;54665;51.462;6.698;2023-02-27T14:28:55;25.25;;;10.23;;
67861;SDS011;54665;51.462;6.698;2023-02-27T14:31:23;7.70;;;3.15;;
67861;SDS011;54665;51.462;6.698;2023-02-27T14:33:53;6.60;;;2.55;;
67861;SDS011;54665;51.462;6.698;2023-02-27T14:36:21;8.87;;;4.20;;
67861;SDS011;54665;51.462;6.698;2023-02-27T14:38:49;18.60;;;6.35;;
67861;SDS011;54665;51.462;6.698;2023-02-27T14:41:22;6.70;;;3.10;;
67861;SDS011;54665;51.462;6.698;2023-02-27T14:44:23;6.80;;;2.85;;
67861;SDS011;54665;51.462;6.698;2023-02-27T14:46:52;7.18;;;3.00;;
67861;SDS011;54665;51.462;6.698;2023-02-27T14:49:29;5.97;;;2.33;;
67861;SDS011;54665;51.462;6.698;2023-02-27T14:52:09;6.22;;;2.67;;
67861;SDS011;54665;51.462;6.698;2023-02-27T14:54:45;8.23;;;2.88;;
67861;SDS011;54665;51.462;6.698;2023-02-27T14:57:22;4.90;;;2.40;;
67861;SDS011;54665;51.462;6.698;2023-02-27T14:59:50;7.25;;;3.40;;
67861;SDS011;54665;51.462;6.698;2023-02-27T15:02:25;6.80;;;3.87;;
67861;SDS011;54665;51.462;6.698;2023-02-27T15:04:54;4.68;;;2.60;;
67861;SDS011;54665;51.462;6.698;2023-02-27T15:07:37;5.05;;;2.47;;
67861;SDS011;54665;51.462;6.698;2023-02-27T15:10:05;5.55;;;3.00;;
67861;SDS011;54665;51.462;6.698;2023-02-27T15:12:37;6.65;;;2.70;;
67861;SDS011;54665;51.462;6.698;2023-02-27T15:15:03;6.13;;;2.70;;
67861;SDS011;54665;51.462;6.698;2023-02-27T15:17:38;6.07;;;3.30;;
67861;SDS011;54665;51.462;6.698;2023-02-27T15:20:25;6.30;;;3.03;;
67861;SDS011;54665;51.462;6.698;2023-02-27T15:22:56;6.68;;;2.90;;
67861;SDS011;54665;51.462;6.698;2023-02-27T15:25:29;6.30;;;2.60;;
67861;SDS011;54665;51.462;6.698;2023-02-27T15:28:03;5.40;;;3.10;;
67861;SDS011;54665;51.462;6.698;2023-02-27T15:30:31;8.88;;;3.15;;
67861;SDS011;54665;51.462;6.698;2023-02-27T15:32:57;13.38;;;6.18;;
67861;SDS011;54665;51.462;6.698;2023-02-27T15:35:26;8.63;;;3.50;;
67861;SDS011;54665;51.462;6.698;2023-02-27T15:37:59;6.63;;;3.38;;
67861;SDS011;54665;51.462;6.698;2023-02-27T15:40:30;7.90;;;3.13;;
67861;SDS011;54665;51.462;6.698;2023-02-27T15:42:57;4.80;;;2.38;;
67861;SDS011;54665;51.462;6.698;2023-02-27T15:45:24;5.35;;;2.70;;
67861;SDS011;54665;51.462;6.698;2023-02-27T15:47:52;5.82;;;2.95;;
67861;SDS011;54665;51.462;6.698;2023-02-27T15:50:23;5.50;;;2.55;;
67861;SDS011;54665;51.462;6.698;2023-02-27T15:52:51;7.43;;;2.67;;
67861;SDS011;54665;51.462;6.698;2023-02-27T15:55:23;7.30;;;3.17;;
67861;SDS011;54665;51.462;6.698;2023-02-27T15:57:57;6.50;;;3.35;;
67861;SDS011;54665;51.462;6.698;2023-02-27T16:00:25;5.65;;;2.67;;
67861;SDS011;54665;51.462;6.698;2023-02-27T16:02:55;4.97;;;2.47;;
67861;SDS011;54665;51.462;6.698;2023-02-27T16:05:25;5.40;;;2.43;;
67861;SDS011;54665;51.462;6.698;2023-02-27T16:07:56;4.47;;;2.53;;
67861;SDS011;54665;51.462;6.698;2023-02-27T16:10:27;4.78;;;2.78;;
67861;SDS011;54665;51.462;6.698;2023-02-27T16:13:18;6.57;;;2.35;;
67861;SDS011;54665;51.462;6.698;2023-02-27T16:18:32;5.23;;;2.37;;
67861;SDS011;54665;51.462;6.698;2023-02-27T16:21:11;4.20;;;1.90;;
67861;SDS011;54665;51.462;6.698;2023-02-27T16:23:38;3.75;;;1.70;;
67861;SDS011;54665;51.462;6.698;2023-02-27T16:31:04;3.23;;;1.70;;
67861;SDS011;54665;51.462;6.698;2023-02-27T16:33:36;5.97;;;1.80;;
67861;SDS011;54665;51.462;6.698;2023-02-27T16:36:22;3.58;;;1.60;;
67861;SDS011;54665;51.462;6.698;2023-02-27T16:38:49;3.50;;;1.70;;
67861;SDS011;54665;51.462;6.698;2023-02-27T16:41:16;5.22;;;1.80;;
67861;SDS011;54665;51.462;6.698;2023-02-27T16:43:43;5.57;;;1.77;;
67861;SDS011;54665;51.462;6.698;2023-02-27T16:46:10;4.32;;;1.60;;
67861;SDS011;54665;51.462;6.698;2023-02-27T16:48:40;2.47;;;1.00;;
67861;SDS011;54665;51.462;6.698;2023-02-27T16:51:08;3.65;;;1.27;;
67861;SDS011;54665;51.462;6.698;2023-02-27T16:53:38;4.90;;;1.40;;
67861;SDS011;54665;51.462;6.698;2023-02-27T16:56:04;2.93;;;1.10;;
67861;SDS011;54665;51.462;6.698;2023-02-27T16:58:30;4.83;;;1.40;;
67861;SDS011;54665;51.462;6.698;2023-02-27T17:00:55;3.53;;;1.30;;